Terminal Aerodrome Forecast
Issued by NWS Shreveport, LA

Home | Current Version | Previous Version | Text Only | Print | Product List | Glossary On
Versions: 1 2 3 4 5 6 7 8 9 10 11 12 13 14 15 16 17
000
FTUS44 KSHV 270536
TAFELD
TAF
KELD 270536Z 2706/2806 VRB03KT P6SM BKN130 BKN250
     FM271000 VRB03KT P6SM VCSH SCT050 BKN100 BKN250
      TEMPO 2710/2714 5SM -TSRA BR BKN025CB
     FM271400 VRB04KT P6SM VCTS BKN035CB OVC100
      TEMPO 2715/2719 3SM -TSRA BR OVC030CB
     FM271900 VRB06KT 5SM -TSRA BR BKN040CB OVC100
     FM280000 VRB03KT P6SM VCTS BKN050CB OVC100=

USA.gov is the U.S. government's official web portal to all federal, state and local government web resources and services.